Cleveland, TN (37312)

2:16 PM EDT on August 29, 2016 (GMT -0400)
Brookes edge | | Change Station

Elev 994 ft 35.21 °N, 84.88 °W | Updated 18 seconds ago

Partly Cloudy
Partly Cloudy
87.8 °F
Feels Like 84 °F
N
1.8
Wind Variable Wind from North
Gusts 2.5 mph

Today
High -- | Low -- °F
--% Chance of Precip.
Yesterday
High -- | Low -- °F
Precip. -- in
Pressure 30.14 in
Visibility 10.0 miles
Clouds Few 5000 ft
Heat Index 84 °F
Dew Point 25 °F
Humidity 10%
Rainfall 0.00 in
Snow Depth Not available.
7:10 AM 8:09 PM
Waning Crescent, 7% visible
METAR KRZR 291755Z AUTO VRB04G12KT 10SM FEW050 32/19 A3014 RMK A01
Pressure 30.14 in
Visibility 10.0 miles
Clouds Few 5000 ft
Heat Index 84 °F
Dew Point 25 °F
Humidity 10%
Rainfall 0.00 in
Snow Depth Not available.
7:10 AM 8:09 PM
Waning Crescent, 7% visible
METAR KRZR 291755Z AUTO VRB04G12KT 10SM FEW050 32/19 A3014 RMK A01
Tropical Depression Nine was centered about 170 miles west-southwest of Key West, Florida, as of late Monday morning. The depression may struggle a bit in the southern Gulf of Mexico before finally making a Gulf Coast landfall later this week with soaking rain and gusty winds.

This latest system was designated a tropical depression Sunday after a Hurricane Hunter reconnaissance mission finally found a sufficiently organized low-pressure center with collocated shower and thunderstorm activity.

10-Day Weather Forecast

Almanac

Astronomy

Aug. 29, 2016 Rise Set
Actual Time
Civil Twilight
Nautical Twilight
Astronomical Twilight
Moon
Length of Visible Light
Length of Day
Tomorrow will be .
, % of the Moon is Illuminated

Today's Extremes

State Highs State Lows

Community

WunderPhotos

Upload Photos

1,935,685 photos uploaded!

WunderBlog® & News

Nearby

Air Quality

  Air Quality AQ Index Pollutant
Not available.

Snow Depth

Station Depth Elevation

Earthquake Activity

City Distance Mag. Time & Date
Minimum magnitude displayed is 2.5.

Coastal Water Temperatures

Place Temperature

Stations

Nearby Weather Stations

Station Location Temp. Windchill Dew Point Humidity Wind Precip. Elev Updated Type
                   

Watches & Warnings

There are currently no watches in effect.